Latest Weather Observations for Mount Ginini

IDN60901

Issued at 12:51 pm EST Friday 28 July 2017 (issued every 10 minutes, with the page automatically refreshed every 10 minutes)

About weather observations | Map of Canberra area stations | Latest observations for Canberra area | Other Formats
Station Details ID: 070349 Name: MOUNT GININI AWS Lat: -35.53 Lon: 148.77 Height: 1760.0 m
Data from the previous 72 hours. | See also: Recent months at Mount Ginini
Date/Time
EST
Temp
°C
App
Temp
°C
Dew
Point
°C
Rel
Hum
%
Delta-T
°C
Wind Press
QNH
hPa
Press
MSL
hPa
Rain since
9am
mm
Dir  Spd
km/h
Gust
km/h
Spd
kts
Gust
kts
28/12:30pm -0.6 -5.9 -0.9 98 0.1 SW 17 33 9 18 - - 2.0
28/12:00pm -1.0 -7.0 -1.3 98 0.1 WSW 20 39 11 21 - - 2.0
28/11:30am -1.1 -6.1 -1.4 98 0.1 SW 15 28 8 15 - - 2.0
28/11:00am -1.2 -6.6 -1.5 98 0.1 SW 17 39 9 21 - - 1.2
28/10:30am -1.4 -7.2 -1.8 97 0.1 SW 19 33 10 18 - - 1.2
28/10:00am -1.5 -7.5 -1.9 97 0.1 SW 20 33 11 18 - - 1.2
28/09:30am -1.8 -7.9 -2.2 97 0.1 SW 20 41 11 22 - - 0.4
28/09:00am -2.0 -8.5 -2.4 97 0.1 WSW 22 48 12 26 - - 7.8
28/08:30am -1.9 -7.4 -2.3 97 0.1 W 17 37 9 20 - - 7.4
28/08:00am -1.9 -7.8 -2.3 97 0.1 WSW 19 37 10 20 - - 6.8
28/07:30am -1.9 -8.8 -2.3 97 0.1 W 24 52 13 28 - - 6.4
28/07:00am -1.5 -7.5 -1.9 97 0.1 W 20 43 11 23 - - 6.0
28/06:30am -1.2 -8.0 -1.6 97 0.1 W 24 44 13 24 - - 5.4
28/06:00am -1.2 -7.6 -1.6 97 0.1 W 22 46 12 25 - - 4.6
28/05:30am -1.6 -7.7 -2.0 97 0.1 W 20 39 11 21 - - 3.8
28/05:00am -1.8 -7.9 -2.2 97 0.1 W 20 37 11 20 - - 3.0
28/04:30am -2.0 -8.9 -2.4 97 0.1 W 24 48 13 26 - - 2.4
28/04:00am -2.1 -8.6 -2.5 97 0.0 W 22 41 12 22 - - 1.4
28/03:30am -2.1 -8.2 -2.5 97 0.0 WNW 20 37 11 20 - - 1.2
28/03:00am -1.8 -8.6 -2.2 97 0.1 WNW 24 54 13 29 - - 0.6
28/02:32am -1.3 -8.8 -1.6 98 0.0 WNW 28 44 15 24 - - 0.0
28/02:30am -1.3 -8.4 -1.6 98 0.0 WNW 26 46 14 25 - - 0.0
28/02:00am -1.1 -7.8 -1.4 98 0.1 WNW 24 43 13 23 - - 0.0
28/01:30am -1.1 -7.1 -1.4 98 0.1 WNW 20 37 11 20 - - 0.0
28/01:00am -1.2 -7.2 -1.5 98 0.1 WNW 20 44 11 24 - - 0.0
28/12:30am -1.1 -7.5 -1.5 97 0.1 WNW 22 39 12 21 - - 0.0
28/12:00am -1.2 -7.6 -1.6 97 0.1 WNW 22 44 12 24 - - 0.0
 
Date/Time
EST
Temp
°C
App
Temp
°C
Dew
Point
°C
Rel
Hum
%
Delta-T
°C
Wind Press
QNH
hPa
Press
MSL
hPa
Rain since
9am
mm
Dir  Spd
km/h
Gust
km/h
Spd
kts
Gust
kts
27/11:30pm -1.3 -8.1 -1.7 97 0.1 WNW 24 39 13 21 - - 0.0
27/11:00pm -1.4 -8.2 -1.8 97 0.1 WNW 24 44 13 24 - - 0.0
27/10:30pm -1.4 -7.8 -1.8 97 0.1 WNW 22 37 12 20 - - 0.0
27/10:00pm -1.4 -7.8 -1.8 97 0.1 WNW 22 39 12 21 - - 0.0
27/09:30pm -1.5 -7.6 -2.1 96 0.2 WNW 20 35 11 19 - - 0.0
27/09:00pm -1.5 -8.0 -2.2 95 0.2 WNW 22 37 12 20 - - 0.0
27/08:30pm -1.5 -8.4 -2.5 93 0.3 NW 24 37 13 20 - - 0.0
27/08:00pm -1.2 -8.4 -5.4 73 1.4 NW 24 35 13 19 - - 0.0
27/07:30pm -0.7 -7.4 -4.6 75 1.4 WNW 22 30 12 16 - - 0.0
27/07:00pm -0.4 -6.7 -5.4 69 1.8 WNW 19 32 10 17 - - 0.0
27/06:30pm -0.1 -6.3 -4.5 72 1.6 WNW 19 30 10 16 - - 0.0
27/06:00pm -0.5 -5.9 -1.3 94 0.3 WNW 17 26 9 14 - - 0.0
27/05:30pm -0.4 -5.0 -1.2 94 0.3 WNW 13 22 7 12 - - 0.0
27/05:00pm 0.4 -4.6 -0.9 91 0.5 WNW 15 24 8 13 - - 0.0
27/04:30pm 1.6 -3.2 -2.3 75 1.5 WNW 13 22 7 12 - - 0.0
27/04:00pm 2.9 -2.3 -2.8 66 2.2 WNW 15 22 8 12 - - 0.0
27/03:30pm 3.5 -1.4 -3.1 62 2.6 WNW 13 22 7 12 - - 0.0
27/03:00pm 3.8 -1.0 -2.8 62 2.6 WNW 13 24 7 13 - - 0.0
27/02:30pm 4.1 -1.1 -3.0 60 2.8 W 15 30 8 16 - - 0.0
27/02:00pm 3.9 -1.8 -3.6 58 2.9 W 17 26 9 14 - - 0.0
27/01:30pm 3.6 -1.2 -2.6 64 2.5 W 13 20 7 11 - - 0.0
27/01:00pm 3.2 -2.0 -3.1 63 2.5 W 15 26 8 14 - - 0.0
27/12:30pm 3.0 -1.9 -3.3 63 2.4 W 13 24 7 13 - - 0.0
27/12:00pm 3.1 -0.5 -3.9 60 2.7 W 6 13 3 7 - - 0.0
27/11:30am 2.7 -1.8 -3.4 64 2.3 W 11 19 6 10 - - 0.0
27/11:00am 2.6 -1.9 -7.0 49 3.5 WSW 9 17 5 9 - - 0.0
27/10:30am 2.4 -2.4 -10.4 38 4.2 WSW 9 17 5 9 - - 0.0
27/10:00am 1.8 -2.6 -10.7 39 4.0 W 7 11 4 6 - - 0.0
27/09:30am 0.6 -4.4 -8.6 50 3.1 WSW 11 15 6 8 - - 0.0
27/09:00am -0.2 -6.0 -8.8 52 2.8 W 15 20 8 11 - - 0.4
27/08:30am -0.1 -6.1 -11.7 41 3.5 W 15 19 8 10 - - 0.4
27/08:00am -0.7 -5.7 -13.2 38 3.6 W 9 17 5 9 - - 0.4
27/07:30am -0.8 -5.9 -15.0 33 3.8 WSW 9 13 5 7 - - 0.4
27/07:00am -0.6 -6.1 -16.8 28 4.2 SW 11 15 6 8 - - 0.4
27/06:30am -0.8 -5.8 -14.3 35 3.7 S 9 11 5 6 - - 0.4
27/06:00am -1.5 -6.9 -13.6 39 3.3 SSW 11 15 6 8 - - 0.4
27/05:30am -2.6 -8.1 -9.3 60 2.0 SSW 13 19 7 10 - - 0.4
27/05:00am -2.7 -8.4 -3.5 94 0.2 SSW 17 24 9 13 - - 0.4
27/04:30am -3.3 -9.0 -3.7 97 0.0 SSW 17 28 9 15 - - 0.4
27/04:00am -3.4 -9.1 -3.8 97 0.0 SW 17 24 9 13 - - 0.4
27/03:30am -2.9 -8.2 -3.3 97 0.0 SW 15 22 8 12 - - 0.4
27/03:00am -3.1 -8.8 -3.5 97 0.0 SSW 17 22 9 12 - - 0.4
27/02:30am -3.0 -9.0 -3.4 97 0.0 SSW 19 26 10 14 - - 0.4
27/02:00am -2.9 -8.5 -3.3 97 0.0 S 17 24 9 13 - - 0.4
27/01:30am -2.7 -8.9 -3.0 98 0.0 SSW 20 30 11 16 - - 0.4
27/01:00am -2.4 -8.4 -2.7 98 0.0 SSW 19 28 10 15 - - 0.4
27/12:30am -2.4 -8.4 -2.7 98 0.0 SSW 19 26 10 14 - - 0.4
27/12:00am -2.0 -7.9 -2.3 98 0.0 SSW 19 30 10 16 - - 0.4
 
Date/Time
EST
Temp
°C
App
Temp
°C
Dew
Point
°C
Rel
Hum
%
Delta-T
°C
Wind Press
QNH
hPa
Press
MSL
hPa
Rain since
9am
mm
Dir  Spd
km/h
Gust
km/h
Spd
kts
Gust
kts
26/11:30pm -1.8 -7.9 -2.1 98 0.0 SW 20 35 11 19 - - 0.4
26/11:00pm -1.4 -7.2 -1.7 98 0.0 SW 19 28 10 15 - - 0.4
26/10:30pm -1.5 -7.9 -1.8 98 0.0 SW 22 41 12 22 - - 0.4
26/10:00pm -1.5 -7.9 -1.8 98 0.0 SW 22 41 12 22 - - 0.4
26/09:30pm -1.3 -7.3 -1.6 98 0.0 SW 20 35 11 19 - - 0.4
26/09:00pm -1.1 -7.1 -1.4 98 0.1 SW 20 32 11 17 - - 0.4
26/08:30pm -1.1 -7.1 -1.4 98 0.1 SW 20 37 11 20 - - 0.4
26/08:00pm -1.1 -7.1 -1.4 98 0.1 SW 20 43 11 23 - - 0.4
26/07:30pm -0.8 -6.7 -1.1 98 0.1 SW 20 37 11 20 - - 0.4
26/07:00pm -0.8 -7.5 -1.1 98 0.1 SW 24 43 13 23 - - 0.4
26/06:30pm -0.7 -6.6 -1.0 98 0.1 SW 20 37 11 20 - - 0.2
26/06:00pm -0.8 -6.2 -1.2 97 0.1 WSW 17 37 9 20 - - 0.2
26/05:30pm -0.8 -5.8 -1.2 97 0.1 WSW 15 30 8 16 - - 0.2
26/05:00pm -0.5 -6.3 -1.2 95 0.2 WSW 19 50 10 27 - - 0.2
26/04:30pm -0.1 -6.0 -0.8 95 0.3 WSW 20 44 11 24 - - 0.2
26/04:00pm -0.2 -6.1 -0.9 95 0.3 W 20 52 11 28 - - 0.2
26/03:30pm 0.3 -5.9 -0.4 95 0.3 W 22 56 12 30 - - 0.2
26/03:07pm 0.2 -7.2 -0.4 96 0.3 WSW 28 61 15 33 - - 0.2
26/03:00pm 0.1 -6.1 -0.5 96 0.2 W 22 50 12 27 - - 0.2
26/02:30pm 0.2 -6.4 -0.4 96 0.3 W 24 50 13 27 - - 0.2
26/02:03pm 0.2 -7.2 -0.5 95 0.3 WSW 28 56 15 30 - - 0.2
26/02:00pm 0.4 -6.6 -0.2 96 0.2 WSW 26 52 14 28 - - 0.2
26/01:30pm 0.3 -7.0 -0.3 96 0.2 W 28 61 15 33 - - 0.2
26/01:00pm -0.1 -7.9 -0.5 97 0.2 WSW 30 61 16 33 - - 0.2
26/12:31pm 0.0 -7.4 -0.4 97 0.2 WSW 28 65 15 35 - - 0.2
26/12:30pm 0.1 -6.5 -0.3 97 0.2 WSW 24 57 13 31 - - 0.2
26/12:00pm -0.2 -8.0 -0.6 97 0.1 WSW 30 67 16 36 - - 0.2
26/11:41am -0.1 -7.5 -0.5 97 0.2 WSW 28 57 15 31 - - 0.2
26/11:30am -0.1 -7.1 -0.4 98 0.1 WSW 26 61 14 33 - - 0.2
26/11:00am -0.1 -7.5 -0.5 97 0.2 WSW 28 57 15 31 - - 0.0
26/10:30am -0.3 -8.1 -0.7 97 0.1 W 30 65 16 35 - - 0.0
26/10:00am -0.4 -8.2 -0.7 98 0.1 W 30 63 16 34 - - 0.0
26/09:30am -0.4 -8.2 -0.7 98 0.1 W 30 69 16 37 - - 0.0
26/09:00am -0.2 -8.0 -0.5 98 0.1 W 30 54 16 29 - - 2.8
26/08:36am -0.3 -7.7 -0.6 98 0.1 W 28 50 15 27 - - 2.8
26/08:30am -0.2 -7.2 -0.5 98 0.1 W 26 50 14 27 - - 2.8
26/08:19am -0.3 -7.7 -0.6 98 0.1 W 28 57 15 31 - - 2.8
26/08:00am -0.2 -7.2 -0.5 98 0.1 W 26 50 14 27 - - 2.8
26/07:57am -0.2 -7.6 -0.5 98 0.1 W 28 59 15 32 - - 2.8
26/07:30am 0.0 -6.6 -0.3 98 0.1 WSW 24 56 13 30 - - 2.8
26/07:00am 0.2 -6.0 -0.1 98 0.1 WSW 22 41 12 22 - - 2.6
26/06:30am 0.3 -6.2 0.0 98 0.1 WSW 24 52 13 28 - - 2.6
26/06:00am 0.3 -5.9 0.0 98 0.1 WSW 22 56 12 30 - - 2.6
26/05:30am 0.2 -6.4 -0.1 98 0.1 WSW 24 48 13 26 - - 2.6
26/05:00am 0.4 -6.1 0.1 98 0.1 WSW 24 48 13 26 - - 2.6
26/04:30am 0.8 -4.9 0.5 98 0.1 W 20 46 11 25 - - 2.6
26/04:00am 1.1 -4.9 0.8 98 0.1 W 22 46 12 25 - - 2.6
26/03:30am 1.3 -4.7 1.0 98 0.1 W 22 43 12 23 - - 2.6
26/03:00am 1.3 -4.7 1.0 98 0.1 W 22 44 12 24 - - 2.6
26/02:30am 1.3 -5.1 1.0 98 0.1 W 24 44 13 24 - - 2.6
26/02:00am 1.2 -5.2 0.9 98 0.1 W 24 44 13 24 - - 2.6
26/01:30am 1.2 -4.8 0.9 98 0.1 W 22 44 12 24 - - 2.2
26/01:00am 1.1 -5.7 0.8 98 0.1 W 26 50 14 27 - - 2.2
26/12:30am 1.0 -5.8 0.7 98 0.1 W 26 44 14 24 - - 1.8
26/12:00am 1.1 -5.3 0.8 98 0.1 W 24 44 13 24 - - 1.4
 
Date/Time
EST
Temp
°C
App
Temp
°C
Dew
Point
°C
Rel
Hum
%
Delta-T
°C
Wind Press
QNH
hPa
Press
MSL
hPa
Rain since
9am
mm
Dir  Spd
km/h
Gust
km/h
Spd
kts
Gust
kts
25/11:30pm 1.1 -4.9 0.8 98 0.1 WNW 22 44 12 24 - - 1.0
25/11:00pm 1.2 -5.6 0.9 98 0.1 WNW 26 46 14 25 - - 0.8
25/10:30pm 1.3 -4.7 1.0 98 0.1 WNW 22 43 12 23 - - 0.2
25/10:00pm 1.4 -5.0 1.1 98 0.1 WNW 24 48 13 26 - - 0.2
25/09:30pm 1.6 -5.1 1.3 98 0.1 WNW 26 50 14 27 - - 0.0
25/09:00pm 1.6 -4.7 1.3 98 0.1 WNW 24 43 13 23 - - 0.0
25/08:30pm 1.4 -4.6 1.1 98 0.1 WNW 22 43 12 23 - - 0.0
25/08:00pm 1.2 -4.4 0.9 98 0.1 WNW 20 39 11 21 - - 0.0
25/07:30pm 1.4 -4.0 1.1 98 0.1 WNW 19 39 10 21 - - 0.0
25/07:00pm 1.6 -4.0 1.3 98 0.1 W 20 39 11 21 - - 0.0
25/06:30pm 1.6 -4.4 1.3 98 0.1 W 22 39 12 21 - - 0.0
25/06:00pm 1.5 -4.5 1.2 98 0.1 W 22 39 12 21 - - 0.0
25/05:30pm 1.4 -5.0 1.0 97 0.2 W 24 46 13 25 - - 0.0
25/05:00pm 1.1 -5.0 0.5 96 0.3 W 22 44 12 24 - - 0.0
25/04:30pm 1.6 -4.5 0.7 94 0.4 WNW 22 43 12 23 - - 0.0
25/04:00pm 2.7 -2.8 1.8 94 0.4 W 20 39 11 21 - - 0.0
25/03:30pm 2.4 -3.2 1.5 94 0.4 W 20 43 11 23 - - 0.0
25/03:00pm 3.5 -1.7 2.6 94 0.4 WNW 19 37 10 20 - - 0.0
25/02:30pm 3.1 -2.3 2.4 95 0.3 W 20 39 11 21 - - 0.0
25/02:00pm 2.9 -2.5 2.2 95 0.3 W 20 37 11 20 - - 0.0
25/01:30pm 2.9 -2.6 2.0 94 0.4 W 20 39 11 21 - - 0.0
25/01:00pm 3.5 -1.8 2.0 90 0.7 W 19 39 10 21 - - 0.0

Latest Capital City Observations: Canberra | Sydney | Melbourne | Brisbane | Adelaide | Perth | Hobart | Darwin

Other Formats:

Comma delimited format used in spreadsheet applications
http://www.bom.gov.au/fwo/IDN60903/IDN60903.95925.axf

JavaScript Object Notation format (JSON) in row-major order
http://www.bom.gov.au/fwo/IDN60903/IDN60903.95925.json